Time;durP1;ratioP1;P1;durP2;ratioP2;P2;SDS_P1;SDS_P2;PMS_P1;PMS_P2;Temp;Humidity;BMP_temperature;BMP_pressure;BME280_temperature;BME280_humidity;BME280_pressure;Samples;Min_cycle;Max_cycle;Signal;HPM_P1;HPM_P2
2022/01/04 00:02:15;;;;;;;1.27;0.63;;;11.30;99.90;;;;;;5034326;28;20178;-78
2022/01/04 00:04:41;;;;;;;1.53;0.73;;;11.30;99.90;;;;;;5017050;28;20185;-78
2022/01/04 00:07:07;;;;;;;1.57;0.73;;;11.30;99.90;;;;;;5032677;28;20186;-77
2022/01/04 00:09:39;;;;;;;2.27;0.77;;;11.30;99.90;;;;;;5033682;28;20302;-77
2022/01/04 00:14:51;;;;;;;1.10;1.00;;;11.30;99.90;;;;;;5032952;28;20443;-77
2022/01/04 00:17:17;;;;;;;1.20;0.70;;;11.30;99.90;;;;;;5014946;28;20424;-79
2022/01/04 00:19:43;;;;;;;4.00;0.80;;;11.20;99.90;;;;;;5015635;28;20573;-78
2022/01/04 00:22:08;;;;;;;0.77;0.70;;;11.20;99.90;;;;;;5032369;28;20190;-78
2022/01/04 00:24:35;;;;;;;1.20;0.50;;;11.20;99.90;;;;;;5032696;28;20225;-77
2022/01/04 00:27:01;;;;;;;0.87;0.63;;;11.20;99.90;;;;;;5033126;28;20195;-78
2022/01/04 00:29:27;;;;;;;1.07;0.63;;;11.10;99.90;;;;;;5033679;28;20523;-78
2022/01/04 00:31:53;;;;;;;1.20;0.70;;;11.20;99.90;;;;;;5033301;28;20805;-79
2022/01/04 00:34:18;;;;;;;0.80;0.60;;;11.10;99.90;;;;;;5031562;28;20177;-79
2022/01/04 00:36:44;;;;;;;0.70;0.60;;;11.10;99.90;;;;;;5032374;28;20410;-79
2022/01/04 00:39:10;;;;;;;1.37;0.70;;;11.00;99.90;;;;;;5031258;28;20672;-79
2022/01/04 00:41:35;;;;;;;1.20;0.80;;;11.10;99.90;;;;;;5030996;28;20219;-78
2022/01/04 00:44:01;;;;;;;2.40;0.80;;;11.00;99.90;;;;;;5031429;28;20236;-80
2022/01/04 00:46:27;;;;;;;2.03;0.93;;;11.00;99.90;;;;;;5032881;28;20194;-77
2022/01/04 00:49:11;;;;;;;1.70;0.90;;;10.90;99.90;;;;;;5031908;28;20223;-78
2022/01/04 00:51:42;;;;;;;1.00;0.80;;;11.00;99.90;;;;;;5032048;28;20488;-80
2022/01/04 00:54:09;;;;;;;1.10;1.00;;;10.90;99.90;;;;;;4998881;28;20477;-79
2022/01/04 00:56:35;;;;;;;0.90;0.90;;;11.00;99.90;;;;;;5031429;28;20430;-77
2022/01/04 00:59:02;;;;;;;1.10;0.77;;;11.00;99.90;;;;;;5031739;28;20821;-80
2022/01/04 01:01:28;;;;;;;0.73;0.60;;;11.00;99.90;;;;;;5031446;28;20525;-79
2022/01/04 01:03:55;;;;;;;2.03;0.93;;;11.00;99.90;;;;;;5031444;28;20430;-78
2022/01/04 01:06:21;;;;;;;2.90;0.80;;;11.00;99.90;;;;;;5032973;28;20466;-78
2022/01/04 01:08:47;;;;;;;0.70;0.63;;;11.00;99.90;;;;;;5031055;28;20473;-78
2022/01/04 01:11:13;;;;;;;2.10;0.80;;;11.10;99.90;;;;;;5032750;28;20427;-78
2022/01/04 01:13:39;;;;;;;1.43;1.10;;;11.00;99.90;;;;;;5031511;28;20426;-78
2022/01/04 01:16:06;;;;;;;1.77;0.97;;;11.00;99.90;;;;;;5032493;28;20452;-77
2022/01/04 01:18:32;;;;;;;3.03;0.70;;;11.10;99.90;;;;;;5031468;28;20489;-77
2022/01/04 01:20:58;;;;;;;2.17;1.10;;;11.10;99.90;;;;;;5030563;28;20471;-78
2022/01/04 01:23:24;;;;;;;1.00;0.90;;;11.10;99.90;;;;;;5030647;28;21247;-78
2022/01/04 01:25:50;;;;;;;1.13;0.90;;;11.10;99.90;;;;;;5031534;28;20424;-78
2022/01/04 01:28:17;;;;;;;1.50;0.90;;;11.10;99.90;;;;;;5030000;28;20513;-77
2022/01/04 01:30:44;;;;;;;1.43;0.90;;;11.10;99.90;;;;;;5031139;28;20430;-77
2022/01/04 01:33:10;;;;;;;1.10;0.77;;;11.10;99.90;;;;;;5031611;28;21003;-79
2022/01/04 01:35:37;;;;;;;1.73;0.90;;;11.10;99.90;;;;;;5031757;28;20418;-79
2022/01/04 01:38:04;;;;;;;4.00;1.73;;;11.10;99.90;;;;;;5030652;28;20430;-79
2022/01/04 01:40:31;;;;;;;1.57;0.90;;;11.10;99.90;;;;;;5030327;28;20446;-79
2022/01/04 01:42:57;;;;;;;4.83;1.33;;;11.10;99.90;;;;;;5030279;28;20945;-78
2022/01/04 01:45:24;;;;;;;1.57;0.90;;;11.00;99.90;;;;;;5031645;28;20413;-78
2022/01/04 01:47:51;;;;;;;1.10;1.00;;;11.00;99.90;;;;;;5032872;28;20430;-78
2022/01/04 01:50:18;;;;;;;1.87;1.10;;;11.00;99.90;;;;;;5033446;28;20509;-78
2022/01/04 01:52:46;;;;;;;1.17;0.80;;;11.10;99.90;;;;;;5032050;28;20554;-77
2022/01/04 01:55:13;;;;;;;2.23;0.93;;;11.00;99.90;;;;;;5032847;28;21203;-77
2022/01/04 01:57:39;;;;;;;1.20;0.93;;;11.00;99.90;;;;;;5013777;28;20475;-77
2022/01/04 02:00:11;;;;;;;0.97;0.80;;;11.00;99.90;;;;;;5031228;28;20450;-77
2022/01/04 02:02:37;;;;;;;1.00;0.93;;;11.00;99.90;;;;;;5032121;28;21361;-78
2022/01/04 02:05:03;;;;;;;1.90;1.23;;;11.00;99.90;;;;;;5030393;28;20515;-77
2022/01/04 02:07:31;;;;;;;2.33;1.10;;;11.00;99.90;;;;;;5029905;28;20429;-78
2022/01/04 02:10:03;;;;;;;5.63;1.80;;;11.10;99.90;;;;;;5030984;28;20468;-77
2022/01/04 02:12:31;;;;;;;0.90;0.80;;;11.10;99.90;;;;;;5013677;28;20425;-78
2022/01/04 02:14:57;;;;;;;1.00;0.90;;;11.10;99.90;;;;;;5029004;28;20507;-80
2022/01/04 02:17:23;;;;;;;1.20;1.10;;;11.10;99.90;;;;;;5012306;28;20516;-79
2022/01/04 02:19:50;;;;;;;1.80;1.00;;;11.10;99.90;;;;;;5030323;28;20194;-79
2022/01/04 02:22:16;;;;;;;1.13;0.93;;;11.10;99.90;;;;;;5030162;28;20450;-79
2022/01/04 02:24:41;;;;;;;1.10;0.90;;;11.10;99.90;;;;;;5028574;28;20913;-80
2022/01/04 02:27:07;;;;;;;1.20;1.10;;;11.10;99.90;;;;;;4995868;28;20189;-79
2022/01/04 02:29:33;;;;;;;1.13;0.70;;;11.10;99.90;;;;;;5028528;28;20223;-79
2022/01/04 02:31:59;;;;;;;1.00;0.80;;;11.20;99.90;;;;;;5031225;28;20539;-79
2022/01/04 02:34:24;;;;;;;1.07;0.97;;;11.10;99.90;;;;;;5012053;28;20564;-79
2022/01/04 02:36:50;;;;;;;1.90;0.87;;;11.20;99.90;;;;;;5030211;28;20188;-79
2022/01/04 02:39:16;;;;;;;1.10;0.93;;;11.10;99.90;;;;;;5011845;28;20231;-79
2022/01/04 02:41:41;;;;;;;1.03;0.97;;;11.10;99.90;;;;;;5029178;28;20668;-78
2022/01/04 02:44:07;;;;;;;1.87;1.00;;;11.10;99.90;;;;;;5012910;28;20192;-78
2022/01/04 02:46:32;;;;;;;2.40;0.83;;;11.10;99.90;;;;;;5029408;28;20876;-78
2022/01/04 02:48:58;;;;;;;2.67;0.80;;;11.20;99.90;;;;;;5029046;28;20301;-78
2022/01/04 02:51:23;;;;;;;1.30;1.00;;;11.10;99.90;;;;;;5012503;28;20297;-79
2022/01/04 02:53:49;;;;;;;1.20;0.80;;;11.10;99.90;;;;;;5012840;28;20570;-78
2022/01/04 02:56:15;;;;;;;2.40;1.10;;;11.10;99.90;;;;;;5028791;28;20210;-79
2022/01/04 02:58:41;;;;;;;1.03;0.93;;;11.10;99.90;;;;;;5012237;28;20877;-79
2022/01/04 03:01:08;;;;;;;1.87;1.10;;;11.10;99.90;;;;;;5030193;28;20459;-79
2022/01/04 03:03:34;;;;;;;1.77;1.00;;;11.10;99.90;;;;;;5011650;28;20430;-79
2022/01/04 03:06:00;;;;;;;4.30;1.10;;;11.00;99.90;;;;;;5011885;28;20434;-79
2022/01/04 03:08:26;;;;;;;1.47;1.17;;;11.00;99.90;;;;;;5029650;28;20469;-79
2022/01/04 03:10:52;;;;;;;0.87;0.77;;;10.90;99.90;;;;;;5029087;28;20187;-78
2022/01/04 03:13:17;;;;;;;11.50;1.30;;;10.90;99.90;;;;;;5030578;28;20446;-78
2022/01/04 03:15:44;;;;;;;1.97;0.90;;;10.90;99.90;;;;;;5036309;28;20183;-78
2022/01/04 03:18:10;;;;;;;1.23;1.07;;;10.90;99.90;;;;;;5035972;28;20424;-79
2022/01/04 03:20:36;;;;;;;1.40;0.97;;;10.90;99.90;;;;;;5035813;28;20819;-78
2022/01/04 03:23:02;;;;;;;1.20;0.90;;;10.90;99.90;;;;;;5038897;28;20182;-78
2022/01/04 03:25:27;;;;;;;1.00;0.60;;;10.70;99.90;;;;;;5035140;28;20416;-78
2022/01/04 03:27:53;;;;;;;1.00;0.90;;;10.60;99.90;;;;;;5001616;28;20222;-79
2022/01/04 03:30:19;;;;;;;1.30;0.93;;;10.60;99.90;;;;;;5034515;28;20639;-78
2022/01/04 03:32:45;;;;;;;1.17;0.80;;;10.60;99.90;;;;;;5036782;28;20732;-78
2022/01/04 03:35:10;;;;;;;3.13;1.20;;;10.60;99.90;;;;;;5036387;28;20450;-79
2022/01/04 03:37:36;;;;;;;1.00;0.90;;;10.60;99.90;;;;;;5035366;28;20178;-78
2022/01/04 03:40:04;;;;;;;0.90;0.80;;;10.60;99.90;;;;;;5018581;28;20212;-78
2022/01/04 03:42:29;;;;;;;1.30;1.13;;;10.60;99.90;;;;;;5035794;28;20791;-78
2022/01/04 03:44:55;;;;;;;0.80;0.67;;;10.50;99.90;;;;;;5036897;28;20424;-79
2022/01/04 03:47:21;;;;;;;1.63;0.90;;;10.50;99.90;;;;;;5034670;28;20193;-78
2022/01/04 03:49:47;;;;;;;0.80;0.73;;;10.50;99.90;;;;;;5034877;28;20666;-78
2022/01/04 03:52:13;;;;;;;0.80;0.80;;;10.50;99.90;;;;;;5018121;28;20541;-79
2022/01/04 03:54:38;;;;;;;1.63;1.07;;;10.40;99.90;;;;;;5034586;28;20731;-79
2022/01/04 03:57:05;;;;;;;2.80;0.97;;;10.50;99.90;;;;;;5035844;28;20183;-78
2022/01/04 03:59:30;;;;;;;2.37;0.97;;;10.40;99.90;;;;;;5035628;28;20204;-79
2022/01/04 04:01:56;;;;;;;1.20;0.93;;;10.40;99.90;;;;;;5035217;28;20429;-78
2022/01/04 04:04:23;;;;;;;1.43;1.00;;;10.40;99.90;;;;;;5035476;28;20210;-77
2022/01/04 04:06:48;;;;;;;2.47;0.70;;;10.40;99.90;;;;;;5034598;28;20427;-78
2022/01/04 04:09:14;;;;;;;1.23;0.83;;;10.50;99.90;;;;;;5034359;28;20239;-77
2022/01/04 04:11:40;;;;;;;1.60;1.00;;;10.50;99.90;;;;;;5034573;28;20309;-77
2022/01/04 04:14:05;;;;;;;1.23;1.00;;;10.50;99.90;;;;;;5018202;28;20191;-77
2022/01/04 04:16:33;;;;;;;3.27;0.80;;;10.60;99.90;;;;;;5034188;28;20669;-78
2022/01/04 04:18:59;;;;;;;0.80;0.67;;;10.70;99.90;;;;;;5036513;28;20213;-79
2022/01/04 04:21:24;;;;;;;0.80;0.60;;;10.70;99.90;;;;;;5036858;28;20516;-78
2022/01/04 04:23:50;;;;;;;1.50;1.00;;;10.80;99.90;;;;;;5034582;28;20724;-77
2022/01/04 04:26:16;;;;;;;1.00;0.90;;;10.90;99.90;;;;;;5031364;28;20301;-79
2022/01/04 04:28:41;;;;;;;1.23;1.13;;;10.90;99.90;;;;;;5033865;28;20666;-79
2022/01/04 04:31:07;;;;;;;2.33;0.90;;;10.90;99.90;;;;;;5034183;28;20183;-77
2022/01/04 04:33:34;;;;;;;6.00;0.80;;;10.80;99.90;;;;;;5033873;28;20177;-77
2022/01/04 04:36:00;;;;;;;1.87;1.20;;;10.80;99.90;;;;;;5032502;28;20429;-79
2022/01/04 04:38:25;;;;;;;1.47;1.07;;;10.80;99.90;;;;;;5032060;28;20429;-78
2022/01/04 04:40:51;;;;;;;1.10;0.90;;;10.60;99.90;;;;;;5033482;28;20229;-78
2022/01/04 04:43:17;;;;;;;1.10;0.80;;;10.60;99.90;;;;;;5031287;28;20264;-79
2022/01/04 04:45:42;;;;;;;2.50;0.83;;;10.50;99.90;;;;;;5032474;28;20186;-78
2022/01/04 04:48:08;;;;;;;2.00;0.83;;;10.40;99.90;;;;;;5032577;28;20653;-79
2022/01/04 04:50:34;;;;;;;1.63;0.90;;;10.50;99.90;;;;;;5031343;28;20226;-78
2022/01/04 04:53:00;;;;;;;2.03;0.70;;;10.40;99.90;;;;;;5029956;28;20286;-78
2022/01/04 04:55:26;;;;;;;1.30;0.97;;;10.50;99.90;;;;;;5039133;28;20228;-80
2022/01/04 04:57:51;;;;;;;2.77;1.07;;;10.50;99.90;;;;;;5032063;28;21100;-77
2022/01/04 05:00:17;;;;;;;1.30;0.90;;;10.40;99.90;;;;;;5032712;28;20303;-79
2022/01/04 05:02:43;;;;;;;2.23;0.90;;;10.40;99.90;;;;;;5016019;28;20194;-80
2022/01/04 05:05:09;;;;;;;1.30;0.90;;;10.40;99.90;;;;;;5032211;28;20662;-79
2022/01/04 05:07:35;;;;;;;1.00;0.90;;;10.40;99.90;;;;;;5033791;28;20427;-79
2022/01/04 05:10:05;;;;;;;2.53;0.73;;;10.40;99.90;;;;;;5032247;28;20475;-79
2022/01/04 05:12:30;;;;;;;0.80;0.70;;;10.40;99.90;;;;;;5032912;28;20512;-79
2022/01/04 05:14:56;;;;;;;1.00;0.70;;;10.50;99.90;;;;;;5032821;28;20523;-79
2022/01/04 05:17:21;;;;;;;1.23;1.00;;;10.50;99.90;;;;;;5032595;28;20200;-78
2022/01/04 05:19:47;;;;;;;0.80;0.60;;;10.60;99.90;;;;;;5032248;28;20219;-79
2022/01/04 05:22:13;;;;;;;0.77;0.67;;;10.60;99.90;;;;;;5033550;28;20498;-78
2022/01/04 05:24:39;;;;;;;1.10;0.80;;;10.60;99.90;;;;;;5030247;28;20190;-78
2022/01/04 05:27:05;;;;;;;1.93;1.10;;;10.60;99.90;;;;;;5029728;28;20200;-78
2022/01/04 05:29:31;;;;;;;0.70;0.57;;;10.60;99.90;;;;;;5030290;28;20260;-79
2022/01/04 05:31:57;;;;;;;0.90;0.60;;;10.60;99.90;;;;;;5031009;28;20461;-77
2022/01/04 05:34:23;;;;;;;1.37;0.90;;;10.60;99.90;;;;;;5032294;28;20488;-83
2022/01/04 05:36:49;;;;;;;0.80;0.70;;;10.60;99.90;;;;;;5013623;28;20193;-80
2022/01/04 05:39:15;;;;;;;1.00;0.70;;;10.60;99.90;;;;;;5030827;28;21039;-76
2022/01/04 05:41:41;;;;;;;1.73;0.90;;;10.60;99.90;;;;;;5033107;28;20429;-77
2022/01/04 05:44:06;;;;;;;0.80;0.80;;;10.40;99.90;;;;;;5033087;28;20573;-79
2022/01/04 05:46:32;;;;;;;1.30;0.80;;;10.60;99.90;;;;;;5029413;28;20190;-77
2022/01/04 05:48:58;;;;;;;2.00;1.00;;;10.50;99.90;;;;;;5028763;28;20243;-78
2022/01/04 05:51:23;;;;;;;1.07;0.97;;;10.60;99.90;;;;;;5028614;28;20659;-78
2022/01/04 05:53:49;;;;;;;1.30;0.80;;;10.60;99.90;;;;;;5029041;28;20191;-79
2022/01/04 05:56:14;;;;;;;1.13;0.60;;;10.50;99.90;;;;;;5030339;28;20197;-78
2022/01/04 05:58:40;;;;;;;0.80;0.60;;;10.50;99.90;;;;;;5029216;28;20584;-80
2022/01/04 06:01:06;;;;;;;1.20;0.57;;;10.50;99.90;;;;;;5029209;28;20196;-77
2022/01/04 06:03:31;;;;;;;0.70;0.50;;;10.50;99.90;;;;;;5030375;28;20191;-80
2022/01/04 06:05:59;;;;;;;0.70;0.50;;;10.60;99.90;;;;;;5013158;28;20241;-77
2022/01/04 06:08:30;;;;;;;1.03;0.53;;;10.50;99.90;;;;;;5028391;28;20196;-77
2022/01/04 06:10:56;;;;;;;1.20;0.57;;;10.60;99.90;;;;;;5029736;28;20434;-77
2022/01/04 06:16:05;;;;;;;1.40;0.50;;;10.60;99.90;;;;;;5029700;28;20200;-78
2022/01/04 06:18:31;;;;;;;0.80;0.80;;;10.60;99.90;;;;;;5029511;28;20432;-78
2022/01/04 06:20:57;;;;;;;0.80;0.60;;;10.60;99.90;;;;;;5027751;28;20533;-77
2022/01/04 06:23:23;;;;;;;0.80;0.57;;;10.70;99.90;;;;;;5028607;28;20198;-77
2022/01/04 06:25:51;;;;;;;1.07;0.67;;;10.70;99.90;;;;;;5028070;28;20439;-76
2022/01/04 06:28:16;;;;;;;1.17;0.70;;;10.70;99.90;;;;;;5027613;28;20537;-76
2022/01/04 06:30:42;;;;;;;3.47;0.80;;;10.80;99.90;;;;;;5030249;28;20421;-76
2022/01/04 06:33:08;;;;;;;1.17;0.63;;;10.80;99.90;;;;;;5030052;28;20190;-76
2022/01/04 06:35:37;;;;;;;0.80;0.50;;;10.80;99.90;;;;;;5027837;28;20180;-77
2022/01/04 06:38:05;;;;;;;1.27;0.40;;;10.90;99.90;;;;;;5027817;28;20191;-75
2022/01/04 06:40:31;;;;;;;1.17;0.50;;;10.90;99.90;;;;;;5027552;28;20457;-76
2022/01/04 06:42:57;;;;;;;1.53;0.50;;;10.90;99.90;;;;;;5029049;28;20432;-77
2022/01/04 06:45:22;;;;;;;0.70;0.50;;;10.90;99.90;;;;;;5029145;28;20240;-77
2022/01/04 06:47:48;;;;;;;1.90;0.57;;;10.90;99.90;;;;;;5029013;28;20717;-76
2022/01/04 06:50:14;;;;;;;1.03;0.60;;;11.00;99.90;;;;;;5026557;28;20231;-77
2022/01/04 06:52:40;;;;;;;0.70;0.50;;;11.00;99.90;;;;;;5028950;28;20211;-76
2022/01/04 06:55:06;;;;;;;4.73;0.53;;;11.00;99.90;;;;;;5027514;28;20900;-77
2022/01/04 06:57:31;;;;;;;1.10;0.57;;;11.10;99.90;;;;;;5028840;28;20417;-77
2022/01/04 06:59:57;;;;;;;1.83;0.53;;;11.10;99.90;;;;;;5028797;28;20272;-77
2022/01/04 07:02:23;;;;;;;3.10;0.77;;;11.10;99.90;;;;;;5011097;28;20261;-77
2022/01/04 07:04:48;;;;;;;0.80;0.50;;;11.10;99.90;;;;;;5028868;28;20200;-77
2022/01/04 07:07:14;;;;;;;0.97;0.50;;;11.10;99.90;;;;;;5028684;28;20672;-76
2022/01/04 07:09:41;;;;;;;1.17;0.83;;;11.10;99.90;;;;;;5028479;28;20227;-77
2022/01/04 07:12:07;;;;;;;1.17;0.60;;;11.10;99.90;;;;;;5026980;28;20443;-77
2022/01/04 07:14:33;;;;;;;0.70;0.50;;;11.20;99.90;;;;;;5028821;28;20552;-76
2022/01/04 07:16:59;;;;;;;0.90;0.60;;;11.20;99.90;;;;;;4994385;28;20547;-76
2022/01/04 07:19:24;;;;;;;1.83;0.80;;;11.10;99.90;;;;;;5028458;28;20295;-76
2022/01/04 07:21:50;;;;;;;8.63;4.97;;;11.20;99.90;;;;;;5028624;28;20180;-76
2022/01/04 07:24:16;;;;;;;1.97;1.60;;;11.20;99.90;;;;;;5028590;28;20197;-76
2022/01/04 07:26:42;;;;;;;0.80;0.60;;;11.20;99.90;;;;;;5027122;28;20432;-77
2022/01/04 07:29:07;;;;;;;0.97;0.87;;;11.30;99.90;;;;;;5026912;28;20234;-76
2022/01/04 07:31:33;;;;;;;1.37;0.50;;;11.50;99.90;;;;;;5027965;28;20193;-76
2022/01/04 07:33:59;;;;;;;1.00;0.60;;;11.50;99.90;;;;;;5027116;28;20191;-76
2022/01/04 07:36:27;;;;;;;0.90;0.60;;;11.60;99.90;;;;;;5027199;28;20261;-75
2022/01/04 07:38:53;;;;;;;1.70;0.60;;;11.70;99.90;;;;;;5027376;28;20513;-76
2022/01/04 07:41:18;;;;;;;3.60;1.13;;;11.80;99.90;;;;;;5027703;28;20946;-76
2022/01/04 07:43:44;;;;;;;1.67;0.67;;;11.90;99.90;;;;;;5025742;28;20217;-76
2022/01/04 07:46:10;;;;;;;1.33;0.77;;;11.90;99.90;;;;;;5027111;28;20194;-76
2022/01/04 07:48:36;;;;;;;0.90;0.60;;;11.80;99.90;;;;;;5027029;28;20223;-77
2022/01/04 07:51:02;;;;;;;0.80;0.60;;;11.80;99.90;;;;;;5027147;28;20286;-76
2022/01/04 07:53:30;;;;;;;1.37;0.67;;;11.80;99.90;;;;;;5027292;28;20246;-76
2022/01/04 07:55:59;;;;;;;2.40;0.90;;;11.80;99.90;;;;;;5027181;28;20428;-76
2022/01/04 07:58:29;;;;;;;1.57;0.60;;;11.90;99.90;;;;;;5026886;28;20452;-76
2022/01/04 08:00:55;;;;;;;1.00;0.80;;;11.90;99.90;;;;;;5027334;28;20418;-75
2022/01/04 08:03:23;;;;;;;0.90;0.70;;;12.00;99.90;;;;;;5030720;28;20449;-76
2022/01/04 08:05:49;;;;;;;0.70;0.60;;;12.10;99.90;;;;;;5030843;28;20679;-76
2022/01/04 08:08:15;;;;;;;0.77;0.50;;;12.00;99.90;;;;;;5029135;28;20517;-77
2022/01/04 08:10:40;;;;;;;1.93;0.80;;;12.10;99.90;;;;;;5029088;28;20190;-76
2022/01/04 08:13:06;;;;;;;1.27;0.97;;;12.40;99.90;;;;;;5030705;28;20196;-77
2022/01/04 08:15:31;;;;;;;0.83;0.70;;;12.40;99.90;;;;;;5030592;28;20660;-77
2022/01/04 08:17:58;;;;;;;1.63;0.57;;;12.40;99.90;;;;;;5030618;28;20215;-77
2022/01/04 08:20:24;;;;;;;1.00;0.60;;;12.50;99.90;;;;;;5030675;28;20808;-77
2022/01/04 08:22:50;;;;;;;1.30;0.60;;;12.50;99.90;;;;;;5029135;28;20431;-77
2022/01/04 08:25:15;;;;;;;1.53;0.70;;;12.50;99.90;;;;;;5030516;28;20430;-76
2022/01/04 08:27:41;;;;;;;0.80;0.50;;;12.70;99.90;;;;;;5030638;28;20180;-76
2022/01/04 08:30:09;;;;;;;2.10;0.70;;;12.70;99.90;;;;;;5031032;28;20336;-76
2022/01/04 08:32:37;;;;;;;0.83;0.60;;;12.60;99.90;;;;;;5031523;28;20422;-77
2022/01/04 08:35:03;;;;;;;4.97;0.70;;;12.80;99.90;;;;;;5029220;28;20478;-77
2022/01/04 08:37:29;;;;;;;1.80;0.60;;;12.80;99.90;;;;;;5030569;28;20433;-76
2022/01/04 08:39:56;;;;;;;1.93;0.63;;;12.90;99.90;;;;;;5029270;28;20450;-77
2022/01/04 08:42:22;;;;;;;1.20;0.70;;;12.90;99.90;;;;;;5030598;28;20431;-76
2022/01/04 08:44:49;;;;;;;1.10;0.80;;;12.90;99.90;;;;;;5030589;28;20428;-76
2022/01/04 08:47:15;;;;;;;1.03;0.93;;;13.00;99.90;;;;;;5030401;28;20461;-76
2022/01/04 08:49:40;;;;;;;3.30;0.70;;;13.00;99.90;;;;;;5030211;28;20468;-76
2022/01/04 08:52:07;;;;;;;1.17;0.60;;;13.00;99.90;;;;;;5030103;28;20249;-76
2022/01/04 08:54:34;;;;;;;3.63;0.60;;;12.90;99.90;;;;;;5030377;28;20245;-78
2022/01/04 08:57:00;;;;;;;0.70;0.60;;;12.90;99.90;;;;;;5030310;28;20418;-76
2022/01/04 08:59:27;;;;;;;2.00;0.90;;;12.80;99.90;;;;;;5030248;28;21013;-76
2022/01/04 09:01:53;;;;;;;3.20;0.70;;;12.90;99.90;;;;;;5030267;28;20437;-77
2022/01/04 09:04:21;;;;;;;1.47;0.60;;;12.90;99.90;;;;;;5028772;28;20440;-76
2022/01/04 09:06:46;;;;;;;1.73;1.07;;;12.90;99.90;;;;;;5028813;28;20422;-76
2022/01/04 09:09:12;;;;;;;1.97;0.80;;;12.80;99.90;;;;;;5028524;28;20478;-76
2022/01/04 09:11:38;;;;;;;0.73;0.73;;;12.90;99.90;;;;;;5029922;28;20263;-78
2022/01/04 09:19:26;;;;;;;2.30;0.97;;;13.10;99.90;;;;;;5030130;28;20444;-76
2022/01/04 09:21:51;;;;;;;1.23;0.90;;;13.00;99.90;;;;;;5030292;28;20425;-76
2022/01/04 09:24:18;;;;;;;0.80;0.70;;;13.00;99.90;;;;;;5029952;28;21098;-76
2022/01/04 09:26:43;;;;;;;0.80;0.70;;;13.00;99.90;;;;;;5029620;28;20423;-77
2022/01/04 09:29:10;;;;;;;4.73;0.80;;;13.00;99.90;;;;;;5029687;28;20513;-77
2022/01/04 09:31:36;;;;;;;4.10;0.90;;;13.00;99.90;;;;;;5028513;28;20977;-77
2022/01/04 09:34:03;;;;;;;1.37;0.60;;;13.00;99.90;;;;;;5029822;28;20952;-74
2022/01/04 09:36:40;;;;;;;0.80;0.60;;;13.00;99.90;;;;;;5029837;28;20426;-76
2022/01/04 09:39:18;;;;;;;1.07;0.90;;;13.00;99.90;;;;;;5029714;28;20488;-76
2022/01/04 09:41:47;;;;;;;1.13;1.03;;;13.00;99.90;;;;;;5029386;28;21245;-77
2022/01/04 09:44:16;;;;;;;1.67;0.80;;;12.90;99.90;;;;;;5029532;28;20421;-76
2022/01/04 09:46:42;;;;;;;1.10;0.80;;;12.90;99.90;;;;;;5029320;28;20411;-76
2022/01/04 09:49:10;;;;;;;1.30;1.00;;;12.90;99.90;;;;;;5029201;28;20884;-76
2022/01/04 09:51:38;;;;;;;4.20;1.03;;;12.80;99.90;;;;;;5029074;28;20437;-75
2022/01/04 09:54:04;;;;;;;2.80;0.93;;;12.80;99.90;;;;;;5029236;28;20433;-76
2022/01/04 09:56:30;;;;;;;1.17;0.80;;;12.80;99.90;;;;;;5029192;28;20427;-75
2022/01/04 09:58:56;;;;;;;1.53;1.00;;;12.60;99.90;;;;;;5029187;28;20447;-76
2022/01/04 10:01:32;;;;;;;1.67;0.90;;;12.60;99.90;;;;;;5029093;28;20496;-76
2022/01/04 10:03:58;;;;;;;1.63;1.03;;;12.50;99.90;;;;;;5029045;28;20285;-77
2022/01/04 10:06:25;;;;;;;1.77;1.00;;;12.50;99.90;;;;;;5028836;28;20513;-75
2022/01/04 10:08:52;;;;;;;1.43;0.93;;;12.50;99.90;;;;;;5027570;28;20468;-77
2022/01/04 10:11:32;;;;;;;1.83;1.10;;;12.50;99.90;;;;;;5028900;28;20544;-77
2022/01/04 10:14:21;;;;;;;1.37;0.80;;;12.50;99.90;;;;;;5028820;28;20412;-77
2022/01/04 10:16:59;;;;;;;2.80;1.00;;;12.50;99.90;;;;;;5028768;28;20437;-77
2022/01/04 10:19:32;;;;;;;2.63;1.40;;;12.50;99.90;;;;;;5027280;28;20437;-75
2022/01/04 10:22:09;;;;;;;1.10;1.00;;;12.50;99.90;;;;;;5027499;28;20788;-77
2022/01/04 10:24:35;;;;;;;1.13;0.83;;;12.60;99.90;;;;;;5027825;28;20425;-77
2022/01/04 10:27:22;;;;;;;1.57;1.20;;;12.50;99.90;;;;;;5028886;28;20476;-77
2022/01/04 10:29:48;;;;;;;1.73;1.10;;;12.50;99.90;;;;;;5028421;28;20218;-76
2022/01/04 10:32:14;;;;;;;1.93;0.80;;;12.50;99.90;;;;;;5027316;28;20417;-75
2022/01/04 10:34:47;;;;;;;1.77;1.07;;;12.60;99.90;;;;;;5028619;28;20934;-75
2022/01/04 10:37:32;;;;;;;4.30;1.10;;;12.70;99.90;;;;;;5028702;28;20968;-75
2022/01/04 10:40:03;;;;;;;2.20;1.00;;;12.70;99.90;;;;;;5027171;28;20453;-76
2022/01/04 10:42:29;;;;;;;1.00;0.90;;;12.80;99.90;;;;;;5027367;28;20992;-76
2022/01/04 10:44:54;;;;;;;1.40;1.10;;;12.90;99.90;;;;;;5028459;28;20456;-76
2022/01/04 10:47:26;;;;;;;1.53;1.37;;;13.10;99.90;;;;;;5028361;28;20269;-76
2022/01/04 10:49:52;;;;;;;1.60;0.80;;;13.20;99.90;;;;;;5028371;28;20294;-76
2022/01/04 10:52:22;;;;;;;4.53;1.43;;;13.10;99.90;;;;;;5028420;28;21031;-75
2022/01/04 10:55:14;;;;;;;2.10;1.27;;;13.20;99.90;;;;;;5028560;28;20156;-75
2022/01/04 10:57:40;;;;;;;1.90;1.10;;;13.40;99.90;;;;;;5028467;28;20513;-75
2022/01/04 11:00:16;;;;;;;1.57;1.00;;;13.40;99.90;;;;;;5028666;28;20521;-76
2022/01/04 11:02:42;;;;;;;2.00;1.20;;;13.50;99.90;;;;;;5027175;28;20166;-76
2022/01/04 11:05:21;;;;;;;4.87;1.33;;;13.50;99.90;;;;;;5028309;28;20421;-76
2022/01/04 11:08:17;;;;;;;1.30;0.97;;;13.50;99.90;;;;;;5028647;28;20187;-75
2022/01/04 11:10:44;;;;;;;1.10;0.90;;;13.50;99.90;;;;;;5019785;28;20490;-76
2022/01/04 11:13:10;;;;;;;0.90;0.80;;;13.50;99.90;;;;;;5026868;28;20426;-76
2022/01/04 11:15:36;;;;;;;5.70;1.33;;;13.50;99.90;;;;;;5028348;28;20430;-77
2022/01/04 11:18:01;;;;;;;1.07;0.97;;;13.40;99.90;;;;;;5028425;28;20798;-77
2022/01/04 11:20:27;;;;;;;3.93;1.20;;;13.40;99.90;;;;;;5028199;28;20503;-78
2022/01/04 11:22:57;;;;;;;1.50;1.30;;;13.40;99.90;;;;;;5028611;28;20430;-77
2022/01/04 11:25:23;;;;;;;4.57;1.60;;;13.40;99.90;;;;;;5028612;28;20622;-77
2022/01/04 11:27:51;;;;;;;1.27;1.00;;;13.30;99.90;;;;;;5028792;28;20411;-76
2022/01/04 11:30:29;;;;;;;4.77;1.70;;;13.30;99.90;;;;;;5028622;28;20609;-76
2022/01/04 11:32:59;;;;;;;3.33;1.20;;;13.20;99.90;;;;;;5028546;28;20794;-78
2022/01/04 11:35:26;;;;;;;4.10;1.50;;;13.20;99.90;;;;;;5029704;28;20477;-77
2022/01/04 11:37:57;;;;;;;2.20;0.90;;;13.20;99.90;;;;;;5032583;28;20413;-79
2022/01/04 11:40:25;;;;;;;1.10;1.00;;;13.20;99.90;;;;;;5032498;28;20488;-76
2022/01/04 11:42:51;;;;;;;1.50;1.40;;;13.10;99.90;;;;;;5033057;28;20449;-77
2022/01/04 11:45:41;;;;;;;2.43;1.47;;;13.10;99.90;;;;;;5032067;28;20477;-77
2022/01/04 11:48:42;;;;;;;4.20;1.97;;;13.10;99.90;;;;;;5032298;28;20457;-77
2022/01/04 11:51:29;;;;;;;3.83;1.67;;;13.00;99.90;;;;;;5032312;28;20829;-78
2022/01/04 11:54:22;;;;;;;3.67;1.63;;;12.90;99.90;;;;;;5032321;28;20540;-78
2022/01/04 11:56:57;;;;;;;3.97;1.67;;;12.80;99.90;;;;;;5032284;28;20420;-78
2022/01/04 11:59:26;;;;;;;2.37;1.83;;;12.70;99.90;;;;;;5032191;28;20433;-77
2022/01/04 12:01:54;;;;;;;3.83;2.10;;;12.70;99.90;;;;;;5032199;28;20415;-78
2022/01/04 12:04:48;;;;;;;3.23;2.00;;;12.60;99.90;;;;;;5032330;28;20418;-77
2022/01/04 12:07:39;;;;;;;1.87;1.77;;;12.50;99.90;;;;;;5032314;28;20397;-79
2022/01/04 12:10:22;;;;;;;1.90;1.80;;;12.50;99.90;;;;;;5030724;28;20470;-77
2022/01/04 12:13:04;;;;;;;3.03;1.83;;;12.50;99.90;;;;;;5032164;28;20414;-77
2022/01/04 12:15:36;;;;;;;7.00;1.77;;;12.50;99.90;;;;;;5032194;28;20493;-75
2022/01/04 12:18:23;;;;;;;8.20;2.10;;;12.50;99.90;;;;;;5031897;28;21034;-76
2022/01/04 12:20:50;;;;;;;4.93;1.60;;;12.50;99.90;;;;;;5031799;28;20785;-77
2022/01/04 12:23:35;;;;;;;1.47;1.30;;;12.40;99.90;;;;;;5031996;28;20421;-76
2022/01/04 12:26:12;;;;;;;3.30;1.50;;;12.50;99.90;;;;;;5030169;28;20867;-77
2022/01/04 12:28:45;;;;;;;3.27;2.07;;;12.40;99.90;;;;;;5031069;28;20518;-76
2022/01/04 12:31:13;;;;;;;2.30;1.47;;;12.40;99.90;;;;;;5031435;28;20466;-77
2022/01/04 12:33:47;;;;;;;1.20;1.10;;;12.40;99.90;;;;;;5031273;28;20915;-78
2022/01/04 12:36:34;;;;;;;1.77;1.50;;;12.40;99.90;;;;;;5029615;28;20425;-79
2022/01/04 12:39:13;;;;;;;2.03;1.53;;;12.40;99.90;;;;;;5030658;28;20434;-76
2022/01/04 12:41:40;;;;;;;2.17;1.80;;;12.30;99.90;;;;;;5030608;28;20493;-78
2022/01/04 12:44:08;;;;;;;4.83;1.90;;;12.40;99.90;;;;;;5030796;28;20426;-76
2022/01/04 12:46:43;;;;;;;1.93;1.50;;;12.30;99.90;;;;;;5029589;28;20425;-76
2022/01/04 12:49:13;;;;;;;4.27;1.40;;;12.30;99.90;;;;;;5030270;28;20468;-76
2022/01/04 12:51:44;;;;;;;2.90;1.47;;;12.30;99.90;;;;;;5028888;28;20441;-76
2022/01/04 12:54:12;;;;;;;2.70;1.40;;;12.30;99.90;;;;;;5030442;28;20416;-75
2022/01/04 12:57:02;;;;;;;3.90;1.20;;;12.30;99.90;;;;;;5030399;28;20422;-76
2022/01/04 12:59:31;;;;;;;2.60;1.00;;;12.40;99.90;;;;;;5030494;28;21030;-78
2022/01/04 13:02:01;;;;;;;1.70;1.20;;;12.40;99.90;;;;;;5030463;28;20731;-78
2022/01/04 13:04:33;;;;;;;1.80;1.00;;;12.40;99.90;;;;;;5030500;28;20925;-76